Time;durP1;ratioP1;P1;durP2;ratioP2;P2;SDS_P1;SDS_P2;PMS_P1;PMS_P2;Temp;Humidity;BMP_temperature;BMP_pressure;BME280_temperature;BME280_humidity;BME280_pressure;Samples;Min_cycle;Max_cycle;Signal;HPM_P1;HPM_P2
2022/10/28 00:01:33;;;;;;;17.15;11.68;;;13.40;99.90;;;;;;5039861;28;20048;-72
2022/10/28 00:04:00;;;;;;;20.02;11.43;;;13.50;99.90;;;;;;5066576;28;20525;-72
2022/10/28 00:06:33;;;;;;;20.20;11.02;;;13.60;99.90;;;;;;5056381;28;20534;-73
2022/10/28 00:08:59;;;;;;;19.30;10.40;;;13.50;99.90;;;;;;5061650;28;20052;-73
2022/10/28 00:11:30;;;;;;;20.42;10.38;;;13.50;99.90;;;;;;5047442;28;20051;-72
2022/10/28 00:13:58;;;;;;;19.95;10.13;;;13.50;99.90;;;;;;5026576;28;20176;-73
2022/10/28 00:16:27;;;;;;;20.73;10.68;;;13.40;99.90;;;;;;5046495;28;20130;-73
2022/10/28 00:18:53;;;;;;;21.98;11.57;;;13.40;99.90;;;;;;5064309;28;20048;-72
2022/10/28 00:21:29;;;;;;;22.88;11.23;;;13.60;99.90;;;;;;5046139;28;20053;-72
2022/10/28 00:23:56;;;;;;;20.40;11.88;;;13.60;99.90;;;;;;5026292;28;20061;-72
2022/10/28 00:26:30;;;;;;;20.30;11.85;;;13.50;99.90;;;;;;5045622;28;20072;-73
2022/10/28 00:29:01;;;;;;;20.92;10.90;;;13.60;99.90;;;;;;5064465;28;20404;-72
2022/10/28 00:31:29;;;;;;;17.60;10.27;;;13.50;99.90;;;;;;5067213;28;20056;-72
2022/10/28 00:33:57;;;;;;;17.83;10.27;;;13.50;99.90;;;;;;5022141;28;20049;-73
2022/10/28 00:36:28;;;;;;;21.48;10.18;;;13.50;99.90;;;;;;5032091;28;20080;-73
2022/10/28 00:38:55;;;;;;;20.17;10.48;;;13.50;99.90;;;;;;5043695;28;20045;-72
2022/10/28 00:41:25;;;;;;;28.60;13.60;;;13.50;99.90;;;;;;5047204;28;20064;-72
2022/10/28 00:43:55;;;;;;;23.58;12.60;;;13.80;99.90;;;;;;5037049;28;20386;-72
2022/10/28 00:46:24;;;;;;;26.63;14.95;;;13.80;99.90;;;;;;5049300;28;20121;-72
2022/10/28 00:48:57;;;;;;;27.02;14.75;;;13.90;99.90;;;;;;5062999;28;20048;-72
2022/10/28 00:51:24;;;;;;;23.33;12.57;;;13.90;99.90;;;;;;5058381;28;20049;-72
2022/10/28 00:53:51;;;;;;;21.95;13.30;;;13.90;99.90;;;;;;5037424;28;20107;-73
2022/10/28 00:56:19;;;;;;;26.48;13.90;;;13.80;99.90;;;;;;5015397;28;20445;-73
2022/10/28 00:58:47;;;;;;;32.13;14.80;;;13.90;99.90;;;;;;5035312;28;20095;-72
2022/10/28 01:01:12;;;;;;;26.52;14.25;;;14.00;99.90;;;;;;5047041;28;20448;-72
2022/10/28 01:03:38;;;;;;;25.63;15.30;;;14.00;99.90;;;;;;5046795;28;20128;-72
2022/10/28 01:06:05;;;;;;;24.23;14.18;;;13.90;99.90;;;;;;5066286;28;20055;-72
2022/10/28 01:08:31;;;;;;;27.23;14.52;;;14.20;99.90;;;;;;5052277;28;20056;-72
2022/10/28 01:11:21;;;;;;;27.13;13.35;;;14.30;99.90;;;;;;5049030;28;20057;-73
2022/10/28 01:14:01;;;;;;;24.95;13.27;;;14.10;99.90;;;;;;5046910;28;20530;-73
2022/10/28 01:17:22;;;;;;;22.83;13.05;;;14.10;99.90;;;;;;5047465;28;20960;-73
2022/10/28 01:20:23;;;;;;;30.95;13.50;;;14.10;99.90;;;;;;5021858;28;20508;-73
2022/10/28 01:23:04;;;;;;;27.98;14.88;;;14.10;99.90;;;;;;5038298;28;20051;-73
2022/10/28 01:26:11;;;;;;;24.13;13.80;;;14.10;99.90;;;;;;5046889;28;20473;-72
2022/10/28 01:29:01;;;;;;;26.48;14.07;;;14.10;99.90;;;;;;4998272;28;20209;-72
2022/10/28 01:32:02;;;;;;;30.98;13.77;;;14.00;99.90;;;;;;5042711;28;20079;-72
2022/10/28 01:34:36;;;;;;;22.85;14.50;;;13.90;99.90;;;;;;5002376;28;20131;-72
2022/10/28 01:37:13;;;;;;;21.17;12.57;;;13.90;99.90;;;;;;5030666;28;20053;-72
2022/10/28 01:39:54;;;;;;;21.80;12.30;;;13.80;99.90;;;;;;5047545;28;20052;-73
2022/10/28 01:42:45;;;;;;;22.13;11.73;;;13.70;99.90;;;;;;5045176;28;20049;-73
2022/10/28 01:45:26;;;;;;;17.83;10.85;;;13.60;99.90;;;;;;5029812;28;20056;-73
2022/10/28 01:48:13;;;;;;;14.45;10.18;;;13.60;99.90;;;;;;5024812;28;20080;-73
2022/10/28 01:51:02;;;;;;;21.33;10.38;;;13.40;99.90;;;;;;5047383;28;20076;-73
2022/10/28 01:53:33;;;;;;;21.55;10.52;;;13.30;99.90;;;;;;5045197;28;20511;-73
2022/10/28 01:56:04;;;;;;;15.50;9.50;;;13.30;99.90;;;;;;5046072;28;20517;-73
2022/10/28 01:58:32;;;;;;;16.83;9.82;;;13.20;99.90;;;;;;5027669;28;20520;-73
2022/10/28 02:01:00;;;;;;;22.90;11.07;;;13.10;99.90;;;;;;5044803;28;20492;-72
2022/10/28 02:03:27;;;;;;;20.02;10.52;;;13.10;99.90;;;;;;5035359;28;20048;-72
2022/10/28 02:05:55;;;;;;;21.33;11.05;;;13.00;99.90;;;;;;5062180;28;20071;-72
2022/10/28 02:08:24;;;;;;;18.67;10.98;;;13.00;99.90;;;;;;5054092;28;20403;-72
2022/10/28 02:11:10;;;;;;;22.83;10.45;;;13.00;99.90;;;;;;5053287;28;20606;-73
2022/10/28 02:14:27;;;;;;;19.85;9.93;;;13.00;99.90;;;;;;5049642;28;20502;-73
2022/10/28 02:17:08;;;;;;;14.27;9.88;;;12.90;99.90;;;;;;4990259;28;20058;-73
2022/10/28 02:19:55;;;;;;;20.45;10.65;;;12.90;99.90;;;;;;5065550;28;20072;-73
2022/10/28 02:22:49;;;;;;;15.32;9.65;;;12.80;99.90;;;;;;5036502;28;20084;-73
2022/10/28 02:25:22;;;;;;;18.65;10.68;;;12.80;99.90;;;;;;5051078;28;20464;-72
2022/10/28 02:28:04;;;;;;;20.73;10.75;;;12.70;99.90;;;;;;5034539;28;20871;-73
2022/10/28 02:30:44;;;;;;;17.20;9.55;;;12.70;99.90;;;;;;5050935;28;20053;-73
2022/10/28 02:33:16;;;;;;;21.48;10.27;;;12.70;99.90;;;;;;5049923;28;20095;-73
2022/10/28 02:35:56;;;;;;;20.35;10.27;;;12.60;99.90;;;;;;5060114;28;20101;-73
2022/10/28 02:38:26;;;;;;;18.70;10.55;;;12.60;99.90;;;;;;5054238;28;20102;-73
2022/10/28 02:40:57;;;;;;;18.00;10.27;;;12.60;99.90;;;;;;5056407;28;20566;-72
2022/10/28 02:43:25;;;;;;;19.27;8.68;;;12.50;99.90;;;;;;5042812;28;20042;-73
2022/10/28 02:45:56;;;;;;;20.35;9.02;;;12.40;99.90;;;;;;5055426;28;20569;-73
2022/10/28 02:48:28;;;;;;;15.00;8.95;;;12.40;99.90;;;;;;5054354;28;20136;-73
2022/10/28 02:51:01;;;;;;;15.50;9.18;;;12.40;99.90;;;;;;5070281;28;20053;-72
2022/10/28 02:53:35;;;;;;;17.00;8.68;;;12.40;99.90;;;;;;5059041;28;20044;-73
2022/10/28 02:56:04;;;;;;;13.93;9.25;;;12.30;99.90;;;;;;5050318;28;20128;-73
2022/10/28 02:58:39;;;;;;;19.95;9.20;;;12.30;99.90;;;;;;5029215;28;20056;-73
2022/10/28 03:01:05;;;;;;;19.25;9.68;;;12.30;99.90;;;;;;5048900;28;20056;-72
2022/10/28 03:03:30;;;;;;;20.38;9.93;;;12.30;99.90;;;;;;5027834;28;20107;-73
2022/10/28 03:05:56;;;;;;;18.10;9.93;;;12.40;99.90;;;;;;5048550;28;20049;-72
2022/10/28 03:08:24;;;;;;;22.02;8.63;;;12.30;99.90;;;;;;5032262;28;20049;-73
2022/10/28 03:10:50;;;;;;;17.27;9.88;;;12.20;99.90;;;;;;5041915;28;20053;-73
2022/10/28 03:13:15;;;;;;;21.55;10.63;;;12.20;99.90;;;;;;5040105;28;20045;-73
2022/10/28 03:15:41;;;;;;;25.90;13.73;;;12.30;99.90;;;;;;5053922;28;20079;-72
2022/10/28 03:18:07;;;;;;;33.80;15.75;;;12.40;99.90;;;;;;5052180;28;20048;-72
2022/10/28 03:20:32;;;;;;;29.88;16.90;;;12.50;99.90;;;;;;5057861;28;20052;-72
2022/10/28 03:22:59;;;;;;;36.00;17.80;;;12.60;99.90;;;;;;5048607;28;20199;-72
2022/10/28 03:25:24;;;;;;;32.33;17.52;;;12.60;99.90;;;;;;5049543;28;20044;-72
2022/10/28 03:27:50;;;;;;;29.10;16.73;;;12.60;99.90;;;;;;5033330;28;20494;-72
2022/10/28 03:30:17;;;;;;;28.83;16.80;;;12.60;99.90;;;;;;5048222;28;20466;-73
2022/10/28 03:32:43;;;;;;;25.13;14.45;;;12.60;99.90;;;;;;5047359;28;20060;-73
2022/10/28 03:35:09;;;;;;;26.38;14.70;;;12.50;99.90;;;;;;5044207;28;20046;-72
2022/10/28 03:37:34;;;;;;;32.15;16.13;;;12.50;99.90;;;;;;5026437;28;20131;-73
2022/10/28 03:40:01;;;;;;;29.45;15.15;;;12.30;99.90;;;;;;5049034;28;20083;-72
2022/10/28 03:42:28;;;;;;;27.77;15.27;;;12.50;99.90;;;;;;5047047;28;20869;-72
2022/10/28 03:44:54;;;;;;;32.00;17.63;;;12.50;99.90;;;;;;5040578;28;20488;-72
2022/10/28 03:47:19;;;;;;;32.13;17.98;;;12.50;99.90;;;;;;5051512;28;20056;-73
2022/10/28 03:49:45;;;;;;;28.92;18.27;;;12.50;99.90;;;;;;5046979;28;20055;-72
2022/10/28 03:52:10;;;;;;;35.13;18.27;;;12.60;99.90;;;;;;5046819;28;20151;-73
2022/10/28 03:54:36;;;;;;;39.13;19.40;;;12.60;99.90;;;;;;5047441;28;20061;-73
2022/10/28 03:57:02;;;;;;;33.20;17.98;;;12.40;99.90;;;;;;5032147;28;20420;-72
2022/10/28 03:59:27;;;;;;;29.73;17.42;;;12.50;99.90;;;;;;5043100;28;20045;-72
2022/10/28 04:01:53;;;;;;;32.70;17.80;;;12.60;99.90;;;;;;5051077;28;20052;-73
2022/10/28 04:04:19;;;;;;;34.63;19.23;;;12.60;99.90;;;;;;5067543;28;20537;-73
2022/10/28 04:06:44;;;;;;;37.30;20.80;;;12.60;99.90;;;;;;5042125;28;20053;-73
2022/10/28 04:09:10;;;;;;;38.65;20.45;;;12.50;99.90;;;;;;5041451;28;20051;-72
2022/10/28 04:11:35;;;;;;;36.55;18.60;;;12.60;99.90;;;;;;5032808;28;20061;-73
2022/10/28 04:14:01;;;;;;;25.83;16.42;;;12.70;99.90;;;;;;5052738;28;20045;-73
2022/10/28 04:16:27;;;;;;;29.83;16.55;;;12.40;99.90;;;;;;5041609;28;20058;-73
2022/10/28 04:18:52;;;;;;;35.15;20.52;;;12.40;99.90;;;;;;5054666;28;20064;-73
2022/10/28 04:21:18;;;;;;;29.80;17.25;;;12.30;99.90;;;;;;5056219;28;20044;-72
2022/10/28 04:23:44;;;;;;;29.20;17.95;;;12.20;99.90;;;;;;5055677;28;20080;-73
2022/10/28 04:26:09;;;;;;;39.28;19.35;;;12.20;99.90;;;;;;5050427;28;20048;-73
2022/10/28 04:28:35;;;;;;;32.33;17.80;;;12.20;99.90;;;;;;5046834;28;20033;-73
2022/10/28 04:31:01;;;;;;;29.13;16.38;;;12.20;99.90;;;;;;5048609;28;20142;-73
2022/10/28 04:33:27;;;;;;;35.33;17.35;;;12.20;99.90;;;;;;5039966;28;20586;-72
2022/10/28 04:35:53;;;;;;;38.30;20.15;;;12.30;99.90;;;;;;5053109;28;20056;-72
2022/10/28 04:38:19;;;;;;;38.05;19.95;;;12.30;99.90;;;;;;5053248;28;20041;-72
2022/10/28 04:40:48;;;;;;;42.97;22.83;;;12.40;99.90;;;;;;5067064;28;20515;-73
2022/10/28 04:43:14;;;;;;;47.60;23.77;;;12.50;99.90;;;;;;5061430;28;20056;-73
2022/10/28 04:45:40;;;;;;;40.78;22.08;;;12.50;99.90;;;;;;5048243;28;20099;-73
2022/10/28 04:48:07;;;;;;;40.40;21.98;;;12.50;99.90;;;;;;5030175;28;20046;-72
2022/10/28 04:50:33;;;;;;;38.55;21.55;;;12.40;99.90;;;;;;5048714;28;20045;-72
2022/10/28 04:52:59;;;;;;;42.97;22.38;;;12.40;99.90;;;;;;5045786;28;20048;-73
2022/10/28 04:55:25;;;;;;;45.90;22.08;;;12.40;99.90;;;;;;5047617;28;20504;-73
2022/10/28 04:57:59;;;;;;;39.75;20.88;;;12.40;99.90;;;;;;5030074;28;20102;-72
2022/10/28 05:00:26;;;;;;;30.25;18.80;;;12.20;99.90;;;;;;5059914;28;20393;-73
2022/10/28 05:02:52;;;;;;;35.38;20.08;;;12.20;99.90;;;;;;5066032;28;20052;-72
2022/10/28 05:05:18;;;;;;;32.28;17.92;;;12.10;99.90;;;;;;5047479;28;20464;-72
2022/10/28 05:07:44;;;;;;;35.90;19.17;;;12.20;99.90;;;;;;5023618;28;20080;-73
2022/10/28 05:10:11;;;;;;;42.28;22.50;;;12.20;99.90;;;;;;5029000;28;20060;-73
2022/10/28 05:12:40;;;;;;;60.47;25.08;;;12.20;99.90;;;;;;5043690;28;20099;-72
2022/10/28 05:15:06;;;;;;;50.15;26.40;;;12.30;99.90;;;;;;5044773;28;20049;-72
2022/10/28 05:17:32;;;;;;;49.20;24.98;;;12.30;99.90;;;;;;5022536;28;20045;-73
2022/10/28 05:19:58;;;;;;;58.92;28.38;;;12.30;99.90;;;;;;5036558;28;20056;-72
2022/10/28 05:22:23;;;;;;;51.83;27.08;;;12.20;99.90;;;;;;5034588;28;20052;-72
2022/10/28 05:24:49;;;;;;;45.20;24.52;;;12.30;99.90;;;;;;5046883;28;20085;-72
2022/10/28 05:27:15;;;;;;;52.60;27.40;;;12.40;99.90;;;;;;5026944;28;20061;-73
2022/10/28 05:29:41;;;;;;;49.75;26.63;;;12.30;99.90;;;;;;5042279;28;20049;-72
2022/10/28 05:32:06;;;;;;;50.70;26.13;;;12.30;99.90;;;;;;5045339;28;20053;-72
2022/10/28 05:34:32;;;;;;;62.42;29.15;;;12.30;99.90;;;;;;5046105;28;20067;-71
2022/10/28 05:36:58;;;;;;;57.55;28.27;;;12.60;99.90;;;;;;5031125;28;20091;-72
2022/10/28 05:39:23;;;;;;;62.58;29.40;;;12.70;99.90;;;;;;5027795;28;20106;-71
2022/10/28 05:41:49;;;;;;;59.53;29.67;;;12.70;99.90;;;;;;5068535;28;20052;-71
2022/10/28 05:44:14;;;;;;;55.72;28.52;;;12.60;99.90;;;;;;5056636;28;20140;-71
2022/10/28 05:46:40;;;;;;;59.42;29.48;;;12.60;99.90;;;;;;5038158;28;20140;-71
2022/10/28 05:49:06;;;;;;;51.28;28.70;;;12.60;99.90;;;;;;5048766;28;20064;-71
2022/10/28 05:51:31;;;;;;;61.28;30.77;;;12.80;99.90;;;;;;5055966;28;20048;-71
2022/10/28 05:53:57;;;;;;;54.67;30.40;;;12.80;99.90;;;;;;5069082;28;20067;-71
2022/10/28 05:56:23;;;;;;;53.88;28.77;;;12.90;99.90;;;;;;5040779;28;20059;-72
2022/10/28 05:58:48;;;;;;;49.13;29.08;;;12.90;99.90;;;;;;5049290;28;20127;-71
2022/10/28 06:01:14;;;;;;;52.05;28.50;;;12.90;99.90;;;;;;5060188;28;20050;-71
2022/10/28 06:03:40;;;;;;;56.53;29.10;;;13.00;99.90;;;;;;5041917;28;20049;-71
2022/10/28 06:06:06;;;;;;;54.55;29.02;;;13.00;99.90;;;;;;5068538;28;20442;-72
2022/10/28 06:08:31;;;;;;;47.55;27.17;;;13.00;99.90;;;;;;5037287;28;20076;-71
2022/10/28 06:10:57;;;;;;;47.05;27.88;;;13.00;99.90;;;;;;5039905;28;20096;-71
2022/10/28 06:13:23;;;;;;;46.75;26.55;;;13.00;99.90;;;;;;5048418;28;20075;-71
2022/10/28 06:15:56;;;;;;;45.45;26.88;;;13.00;99.90;;;;;;5056187;28;20096;-72
2022/10/28 06:18:23;;;;;;;49.03;26.77;;;13.00;99.90;;;;;;5034712;28;20041;-71
2022/10/28 06:20:56;;;;;;;48.47;26.58;;;13.10;99.90;;;;;;5059106;28;20072;-71
2022/10/28 06:23:23;;;;;;;49.47;26.02;;;13.00;99.90;;;;;;5068518;28;20105;-72
2022/10/28 06:25:50;;;;;;;48.17;25.60;;;13.00;99.90;;;;;;5055195;28;20501;-72
2022/10/28 06:28:16;;;;;;;42.85;24.75;;;13.10;99.90;;;;;;5029601;28;20048;-72
2022/10/28 06:30:41;;;;;;;49.00;26.42;;;13.00;99.90;;;;;;5046489;28;20417;-70
2022/10/28 06:33:07;;;;;;;46.28;23.73;;;13.00;99.90;;;;;;5042910;28;20102;-71
2022/10/28 06:35:33;;;;;;;45.88;25.10;;;12.90;99.90;;;;;;5048836;28;20045;-72
2022/10/28 06:37:59;;;;;;;41.55;23.38;;;13.00;99.90;;;;;;5055104;28;20052;-72
2022/10/28 06:40:25;;;;;;;42.88;23.95;;;12.90;99.90;;;;;;5070695;28;20043;-71
2022/10/28 06:43:02;;;;;;;50.45;24.30;;;12.90;99.90;;;;;;5068870;28;20048;-71
2022/10/28 06:45:29;;;;;;;48.30;22.88;;;12.90;99.90;;;;;;5049447;28;20048;-72
2022/10/28 06:48:00;;;;;;;40.42;22.35;;;12.90;99.90;;;;;;5032619;28;21610;-72
2022/10/28 06:50:26;;;;;;;40.88;23.55;;;12.90;99.90;;;;;;5048959;28;20064;-72
2022/10/28 06:52:53;;;;;;;49.88;23.55;;;12.90;99.90;;;;;;5047493;28;20135;-71
2022/10/28 06:55:19;;;;;;;41.92;23.45;;;12.90;99.90;;;;;;5036909;28;20080;-71
2022/10/28 06:57:45;;;;;;;39.03;22.17;;;12.90;99.90;;;;;;5017682;28;20570;-72
2022/10/28 07:00:11;;;;;;;37.47;22.63;;;13.00;99.90;;;;;;5040360;28;20057;-72
2022/10/28 07:02:37;;;;;;;37.67;22.58;;;13.00;99.90;;;;;;5039016;28;20507;-71
2022/10/28 07:05:03;;;;;;;37.92;21.88;;;13.00;99.90;;;;;;5028611;28;20069;-71
2022/10/28 07:07:28;;;;;;;39.00;21.70;;;13.10;99.90;;;;;;5022550;28;20051;-72
2022/10/28 07:09:54;;;;;;;36.05;20.35;;;13.20;99.90;;;;;;5043931;28;20051;-72
2022/10/28 07:12:19;;;;;;;34.28;20.38;;;13.30;99.90;;;;;;5040924;28;20409;-72
2022/10/28 07:14:45;;;;;;;33.28;19.00;;;13.30;99.90;;;;;;5039374;28;20061;-72
2022/10/28 07:17:11;;;;;;;39.65;19.85;;;13.30;99.90;;;;;;5044801;28;20044;-72
2022/10/28 07:19:36;;;;;;;36.20;19.30;;;13.50;99.90;;;;;;5035273;28;20175;-72
2022/10/28 07:22:02;;;;;;;35.83;18.55;;;13.40;99.90;;;;;;5048683;28;20441;-72
2022/10/28 07:24:28;;;;;;;30.58;18.25;;;13.50;99.90;;;;;;5040789;28;20041;-72
2022/10/28 07:26:53;;;;;;;33.08;18.13;;;13.60;99.90;;;;;;5025017;28;20060;-72
2022/10/28 07:29:19;;;;;;;34.13;17.08;;;13.60;99.90;;;;;;5060017;28;20048;-72
2022/10/28 07:31:44;;;;;;;31.48;16.90;;;13.70;99.90;;;;;;5042897;28;20041;-72
2022/10/28 07:34:10;;;;;;;32.72;16.80;;;13.70;99.90;;;;;;5036352;28;20041;-72
2022/10/28 07:36:36;;;;;;;31.25;16.45;;;13.90;99.90;;;;;;5026069;28;20066;-72
2022/10/28 07:39:02;;;;;;;27.25;15.23;;;14.10;99.90;;;;;;5027700;28;20124;-72
2022/10/28 07:41:27;;;;;;;27.60;15.18;;;14.20;99.90;;;;;;5046665;28;20053;-72
2022/10/28 07:43:53;;;;;;;27.58;14.85;;;14.20;99.90;;;;;;5038817;28;20131;-71
2022/10/28 07:46:19;;;;;;;27.38;14.98;;;14.30;99.90;;;;;;5050495;28;20169;-72
2022/10/28 07:48:44;;;;;;;24.45;13.57;;;14.30;99.90;;;;;;5062150;28;20098;-71
2022/10/28 07:51:12;;;;;;;24.40;13.07;;;14.40;99.90;;;;;;5069108;28;20060;-72
2022/10/28 07:53:38;;;;;;;25.75;13.32;;;14.50;99.90;;;;;;5060732;28;20533;-72
2022/10/28 07:56:12;;;;;;;24.20;13.07;;;14.50;99.90;;;;;;5047599;28;20065;-71
2022/10/28 07:58:39;;;;;;;25.63;13.13;;;14.70;99.90;;;;;;5041021;28;20477;-72
2022/10/28 08:01:07;;;;;;;25.23;12.07;;;14.70;99.90;;;;;;5052496;28;20153;-72
2022/10/28 08:03:33;;;;;;;25.45;12.35;;;14.70;99.90;;;;;;5059410;28;20041;-72
2022/10/28 08:06:09;;;;;;;25.65;12.23;;;14.70;99.90;;;;;;5041359;28;20091;-72
2022/10/28 08:08:35;;;;;;;21.05;11.88;;;14.80;99.90;;;;;;5011536;28;20096;-72
2022/10/28 08:11:11;;;;;;;20.40;11.73;;;14.70;99.90;;;;;;5039407;28;20406;-72
2022/10/28 08:13:36;;;;;;;23.00;11.93;;;14.60;99.90;;;;;;5031711;28;20051;-73
2022/10/28 08:16:02;;;;;;;30.13;12.00;;;14.80;99.90;;;;;;5039892;28;20400;-73
2022/10/28 08:18:28;;;;;;;23.05;11.35;;;14.80;99.90;;;;;;5016092;28;20049;-72
2022/10/28 08:20:53;;;;;;;21.50;11.48;;;14.90;99.90;;;;;;5038514;28;20536;-72
2022/10/28 08:23:19;;;;;;;23.95;12.10;;;15.00;99.90;;;;;;5035100;28;20056;-73
2022/10/28 08:25:50;;;;;;;25.45;10.45;;;15.00;99.90;;;;;;5034544;28;20053;-72
2022/10/28 08:28:16;;;;;;;23.20;11.15;;;15.10;99.90;;;;;;5016466;28;20064;-72
2022/10/28 08:30:42;;;;;;;21.92;10.70;;;15.10;99.90;;;;;;5037581;28;20051;-72
2022/10/28 08:33:07;;;;;;;27.98;10.57;;;15.10;99.90;;;;;;5027288;28;20151;-72
2022/10/28 08:35:34;;;;;;;23.15;10.45;;;15.20;99.90;;;;;;5038354;28;20041;-72
2022/10/28 08:38:01;;;;;;;19.33;9.90;;;15.40;99.90;;;;;;5017991;28;20056;-72
2022/10/28 08:40:52;;;;;;;17.83;9.25;;;15.50;99.90;;;;;;5041217;28;20053;-72
2022/10/28 08:43:47;;;;;;;22.40;9.52;;;15.50;99.90;;;;;;5027288;28;20044;-72
2022/10/28 08:46:40;;;;;;;18.50;9.43;;;15.60;99.90;;;;;;5005439;28;20067;-73
2022/10/28 08:49:13;;;;;;;21.77;9.07;;;15.70;99.90;;;;;;5027301;28;20436;-73
2022/10/28 08:51:47;;;;;;;19.77;8.63;;;15.90;99.90;;;;;;5041184;28;20404;-72
2022/10/28 08:54:34;;;;;;;20.50;9.40;;;15.90;99.90;;;;;;5024858;28;20049;-73
2022/10/28 08:57:03;;;;;;;21.83;9.25;;;16.00;99.90;;;;;;5015495;28;20085;-72
2022/10/28 08:59:34;;;;;;;19.73;8.70;;;16.10;99.90;;;;;;5040833;28;20099;-72
2022/10/28 09:02:12;;;;;;;17.40;9.07;;;16.10;99.90;;;;;;5028439;28;20053;-72
2022/10/28 09:04:41;;;;;;;20.20;8.50;;;16.20;99.90;;;;;;5043946;28;20491;-72
2022/10/28 09:07:19;;;;;;;19.95;8.75;;;16.10;99.90;;;;;;5013539;28;20052;-73
2022/10/28 09:09:46;;;;;;;22.77;8.85;;;16.20;99.90;;;;;;5009700;28;20045;-72
2022/10/28 09:12:33;;;;;;;20.63;8.80;;;16.20;99.90;;;;;;5042601;28;20041;-73
2022/10/28 09:15:19;;;;;;;20.58;8.68;;;16.30;99.90;;;;;;5033413;28;20045;-73
2022/10/28 09:18:09;;;;;;;18.45;8.13;;;16.20;99.90;;;;;;5014022;28;21522;-73
2022/10/28 09:20:43;;;;;;;19.77;8.38;;;16.30;99.90;;;;;;5052274;28;20049;-73
2022/10/28 09:23:31;;;;;;;23.33;8.63;;;16.30;99.90;;;;;;5036908;28;20050;-72
2022/10/28 09:26:19;;;;;;;19.33;8.77;;;16.30;99.90;;;;;;5028247;28;20054;-72
2022/10/28 09:29:09;;;;;;;22.25;8.38;;;16.20;99.90;;;;;;5029405;28;20045;-72
2022/10/28 09:31:46;;;;;;;19.70;8.45;;;16.30;99.90;;;;;;5032026;28;20045;-73
2022/10/28 09:34:21;;;;;;;24.42;8.55;;;16.30;99.90;;;;;;5053605;28;20091;-72
2022/10/28 09:36:58;;;;;;;24.98;8.68;;;16.30;99.90;;;;;;5054555;28;20060;-73
2022/10/28 09:39:28;;;;;;;18.67;8.35;;;16.30;99.90;;;;;;5021747;28;20053;-72
2022/10/28 09:41:57;;;;;;;23.23;8.52;;;16.30;99.90;;;;;;5058726;28;20049;-72
2022/10/28 09:44:38;;;;;;;20.33;9.02;;;16.40;99.90;;;;;;5035127;28;20112;-73
2022/10/28 09:47:18;;;;;;;23.52;9.20;;;16.40;99.90;;;;;;5016349;28;20500;-73
2022/10/28 09:49:46;;;;;;;25.20;9.30;;;16.40;99.90;;;;;;5036908;28;20040;-72
2022/10/28 09:52:34;;;;;;;21.90;8.93;;;16.40;99.90;;;;;;5069041;28;20484;-72
2022/10/28 09:55:12;;;;;;;19.17;8.10;;;16.40;99.90;;;;;;5049213;28;20063;-72
2022/10/28 09:57:38;;;;;;;25.13;8.60;;;16.40;99.90;;;;;;5044262;28;20207;-72
2022/10/28 10:00:04;;;;;;;23.20;8.57;;;16.50;99.90;;;;;;5040721;28;20125;-72
2022/10/28 10:02:32;;;;;;;16.50;7.68;;;16.50;99.90;;;;;;5057843;28;20419;-73
2022/10/28 10:05:00;;;;;;;18.13;8.02;;;16.60;99.90;;;;;;5060159;28;20046;-72
2022/10/28 10:08:02;;;;;;;22.23;7.75;;;16.60;99.90;;;;;;5042858;28;20041;-73
2022/10/28 10:10:38;;;;;;;18.77;7.75;;;16.70;99.90;;;;;;5042846;28;20509;-72
2022/10/28 10:13:06;;;;;;;20.10;7.78;;;16.80;99.90;;;;;;5056244;28;20048;-72
2022/10/28 10:15:39;;;;;;;19.80;7.88;;;16.80;99.90;;;;;;5057579;28;20052;-73
2022/10/28 10:18:11;;;;;;;18.23;7.47;;;16.90;99.90;;;;;;5029792;28;20122;-73
2022/10/28 10:20:48;;;;;;;17.65;7.38;;;16.90;99.90;;;;;;5040169;28;20416;-71
2022/10/28 10:23:33;;;;;;;16.70;7.65;;;16.90;99.90;;;;;;5037866;28;20136;-73
2022/10/28 10:26:09;;;;;;;19.10;7.72;;;17.00;99.90;;;;;;5054233;28;20048;-72
2022/10/28 10:28:38;;;;;;;19.73;8.13;;;17.10;99.90;;;;;;5028905;28;20124;-73
2022/10/28 10:31:06;;;;;;;16.70;7.22;;;17.10;99.90;;;;;;5037207;28;20052;-73
2022/10/28 10:33:38;;;;;;;19.02;7.25;;;17.20;99.90;;;;;;5038372;28;20045;-73
2022/10/28 10:36:11;;;;;;;;;;;17.20;99.90;;;;;;5036628;28;20128;-73
2022/10/28 10:38:46;;;;;;;18.70;7.15;;;17.30;99.90;;;;;;5032979;28;19956;-72
2022/10/28 10:41:12;;;;;;;19.60;6.90;;;17.40;99.90;;;;;;5034870;28;20041;-73
2022/10/28 10:43:38;;;;;;;19.38;7.65;;;17.60;99.90;;;;;;5028757;28;20116;-72
2022/10/28 10:46:16;;;;;;;16.85;7.10;;;17.60;99.90;;;;;;5040463;28;20538;-72
2022/10/28 10:48:43;;;;;;;17.90;7.05;;;17.80;99.90;;;;;;5038721;28;20048;-72
2022/10/28 10:51:21;;;;;;;16.55;7.13;;;17.90;99.90;;;;;;5037097;28;20045;-73
2022/10/28 10:53:49;;;;;;;17.52;7.32;;;18.10;99.90;;;;;;5020610;28;20057;-72
2022/10/28 10:56:27;;;;;;;22.40;7.00;;;18.10;99.90;;;;;;5031782;28;20063;-73
2022/10/28 10:58:56;;;;;;;25.35;6.50;;;18.20;99.90;;;;;;5038920;28;20472;-73
2022/10/28 11:01:32;;;;;;;20.13;6.88;;;18.10;99.90;;;;;;5047416;28;20045;-72
2022/10/28 11:04:03;;;;;;;20.75;7.55;;;18.10;99.90;;;;;;5032881;28;20042;-73
2022/10/28 11:06:33;;;;;;;19.50;6.53;;;18.10;99.90;;;;;;5017324;28;20042;-73
2022/10/28 11:09:03;;;;;;;18.17;6.65;;;18.20;99.90;;;;;;5028447;28;20044;-73
2022/10/28 11:11:36;;;;;;;18.13;7.28;;;18.40;99.90;;;;;;5029993;28;20049;-73
2022/10/28 11:14:08;;;;;;;15.70;6.97;;;18.60;99.90;;;;;;5031621;28;20052;-73
2022/10/28 11:16:45;;;;;;;18.83;6.45;;;18.60;99.90;;;;;;5026097;28;20127;-73
2022/10/28 11:19:35;;;;;;;20.58;7.72;;;18.50;99.90;;;;;;5032705;28;20052;-73
2022/10/28 11:22:15;;;;;;;20.52;7.05;;;18.50;99.90;;;;;;5034027;28;20056;-72
2022/10/28 11:24:56;;;;;;;23.30;6.90;;;18.80;99.90;;;;;;5027712;28;20072;-73
2022/10/28 11:27:48;;;;;;;17.20;6.80;;;19.10;99.90;;;;;;4998699;28;20818;-72
2022/10/28 11:30:25;;;;;;;21.25;6.43;;;19.30;99.90;;;;;;5027966;28;20049;-72
2022/10/28 11:33:11;;;;;;;15.95;5.90;;;19.30;99.90;;;;;;5024977;28;20045;-72
2022/10/28 11:35:59;;;;;;;20.27;6.90;;;19.20;99.90;;;;;;5010413;28;20431;-73
2022/10/28 11:38:30;;;;;;;20.83;6.35;;;19.20;99.90;;;;;;5016862;28;20045;-73
2022/10/28 11:41:05;;;;;;;16.00;6.13;;;19.20;99.90;;;;;;5029916;28;20060;-73
2022/10/28 11:43:31;;;;;;;19.27;6.45;;;19.20;99.90;;;;;;5028497;28;20057;-72
2022/10/28 11:46:08;;;;;;;17.80;6.30;;;19.30;99.90;;;;;;5040170;28;20120;-73
2022/10/28 11:48:40;;;;;;;23.38;6.20;;;19.30;99.90;;;;;;5030491;28;20052;-72
2022/10/28 11:51:44;;;;;;;20.40;6.13;;;19.20;99.90;;;;;;5040890;28;20045;-72
2022/10/28 11:54:36;;;;;;;16.95;6.00;;;19.50;99.90;;;;;;5017934;28;20144;-73
2022/10/28 11:57:12;;;;;;;21.58;6.13;;;19.70;99.90;;;;;;5026444;28;20053;-73
2022/10/28 12:00:04;;;;;;;17.73;5.50;;;19.90;99.90;;;;;;5038846;28;20041;-73
2022/10/28 12:02:33;;;;;;;19.45;6.30;;;20.00;99.90;;;;;;5025835;28;20047;-73
2022/10/28 12:05:23;;;;;;;15.00;5.55;;;20.10;99.90;;;;;;5012172;28;20053;-73
2022/10/28 12:08:00;;;;;;;16.20;6.32;;;20.10;99.90;;;;;;5023294;28;20417;-73
2022/10/28 12:10:50;;;;;;;20.98;6.32;;;20.00;99.90;;;;;;5032076;28;20118;-72
2022/10/28 12:13:39;;;;;;;14.98;5.78;;;20.00;99.90;;;;;;5042922;28;20076;-73
2022/10/28 12:16:39;;;;;;;15.50;5.32;;;19.80;99.90;;;;;;5017297;28;20128;-73
2022/10/28 12:19:15;;;;;;;16.53;5.60;;;19.70;99.90;;;;;;5015090;28;20080;-73
2022/10/28 12:22:22;;;;;;;20.17;6.55;;;19.60;99.90;;;;;;5058239;28;20288;-73
2022/10/28 12:24:49;;;;;;;15.32;6.15;;;19.50;99.90;;;;;;5004367;28;20053;-72
2022/10/28 12:27:22;;;;;;;16.23;6.40;;;19.40;99.90;;;;;;5024181;28;20136;-73
2022/10/28 12:29:53;;;;;;;15.40;6.18;;;19.40;99.90;;;;;;5044933;28;20451;-73
2022/10/28 12:32:28;;;;;;;17.33;5.68;;;19.30;99.90;;;;;;5040193;28;20041;-72
2022/10/28 12:35:32;;;;;;;14.75;5.57;;;19.20;99.90;;;;;;5043568;28;20045;-73
2022/10/28 12:38:29;;;;;;;16.52;5.75;;;19.20;99.90;;;;;;5028851;28;20504;-72
2022/10/28 12:41:11;;;;;;;17.52;6.00;;;19.10;99.90;;;;;;5044583;28;20606;-73
2022/10/28 12:43:52;;;;;;;20.77;6.40;;;19.20;99.90;;;;;;5034064;28;20164;-72
2022/10/28 12:46:48;;;;;;;20.45;6.57;;;19.10;99.90;;;;;;5015407;28;20041;-73
2022/10/28 12:49:43;;;;;;;16.05;5.88;;;19.10;99.90;;;;;;5037377;28;20732;-72
2022/10/28 12:52:51;;;;;;;17.60;5.93;;;19.10;99.90;;;;;;5006700;28;20151;-73
2022/10/28 12:55:41;;;;;;;18.30;6.03;;;19.10;99.90;;;;;;5004472;28;20045;-73
2022/10/28 12:58:20;;;;;;;19.70;6.97;;;19.10;99.90;;;;;;5022349;28;20044;-72